الصفحة الرئيسية
METAR-TAF:

METAR-TAF

مطار :

مطار عمان المدني

عمان, الأردن

دائرة عرض: 31-59N, خط طول: 035-59E, ارتفاع: 767 متر

مراقبة الطقس الحالي

تاريخ ووقت الإصدار 24 دقيقة قبل الساعة 21:00UTC
ريح 4 عقدة من الغرب
درجة الحرارة 22°درجة مئوية
الرطوبة 57%
ضغط 1010 hPa
الرؤية: 8000 متر

METAR: OJAM 052100Z 26004KT 8000 NSC 22/13 Q1010 NOSIG

زمن: 00:24 (21:24 UTC)

توقعات

تاريخ ووقت الإصدار 4ساعات و 34 دقيقة قبل الساعة 16:50UTC
التوقعات صالحة من05 الساعة 18 UTC إلى 06 الساعة 24 UTC
ريح 10 عقدة من الغرب/الشمال الغربي
الرؤية: 7000 متر
نظرية الاحتمالات 30%
من 06 الساعة 02 UTC إلى 06 الساعة 05 UTC
ريح 2 عقدةمن اتجاهات متغيرة
الرؤية: 3000 متر
غشاء

TAF: OJAM 051650Z 0518/0624 30010KT 7000 NSC PROB30 0602/0605 VRB02KT 3000 BR

أرصاد الطقس والتوقعات من أكثر من 4000 مطار (تقارير الطقس للمطار METAR والتنبؤ بالطقس بالمطارTAF).

المحطات المتاحة هي النقط الصفراء والحمراء على الخريطة.

حرك المؤشر فوق النقطة لمعرفة اسم المحطة.

ثم انقر لمعرفة أرصاد وتوقعات الطقس.

لتغيير الخارطة: اضغط على الأزرار الخضراء مع رمز الصليب الأسود للتكبير. على الزر الأخضر مع شرطة للتصغير، أو على الأسهم الخضراء للخرائط المجاورة.


METAR-TAF: